createdAt,value
2018-08-03T00:02:02.721Z,99.90
2018-08-03T00:04:31.366Z,99.90
2018-08-03T00:07:00.028Z,99.90
2018-08-03T00:09:28.604Z,99.90
2018-08-03T00:11:57.214Z,99.90
2018-08-03T00:14:25.902Z,99.90
2018-08-03T00:16:54.547Z,99.90
2018-08-03T00:19:23.159Z,99.90
2018-08-03T00:21:51.773Z,99.90
2018-08-03T00:24:20.326Z,99.90
2018-08-03T00:26:48.961Z,99.90
2018-08-03T00:29:17.550Z,99.90
2018-08-03T00:31:46.205Z,99.90
2018-08-03T00:34:14.863Z,99.90
2018-08-03T00:36:44.554Z,99.90
2018-08-03T00:39:13.168Z,99.90
2018-08-03T00:44:10.064Z,99.90
2018-08-03T00:46:38.584Z,99.90
2018-08-03T00:49:07.233Z,99.90
2018-08-03T00:51:35.897Z,99.90
2018-08-03T00:54:04.803Z,99.90
2018-08-03T00:56:33.344Z,99.90
2018-08-03T00:59:01.921Z,99.90
2018-08-03T01:01:30.527Z,99.90
2018-08-03T01:03:59.089Z,99.90
2018-08-03T01:06:27.623Z,99.90
2018-08-03T01:08:56.209Z,99.90
2018-08-03T01:11:24.833Z,99.90
2018-08-03T01:13:53.435Z,99.90
2018-08-03T01:16:22.322Z,99.90
2018-08-03T01:18:50.990Z,99.90
2018-08-03T01:21:19.593Z,99.90
2018-08-03T01:23:48.188Z,99.90
2018-08-03T01:26:16.757Z,99.90
2018-08-03T01:28:45.401Z,99.90
2018-08-03T01:31:13.979Z,99.90
2018-08-03T01:33:42.651Z,99.90
2018-08-03T01:36:11.209Z,99.90
2018-08-03T01:38:39.828Z,99.90
2018-08-03T01:41:08.397Z,99.90
2018-08-03T01:43:36.996Z,99.90
2018-08-03T01:46:05.941Z,99.90
2018-08-03T01:48:34.552Z,99.90
2018-08-03T01:51:03.166Z,99.90
2018-08-03T01:53:31.781Z,99.90
2018-08-03T01:56:00.358Z,99.90
2018-08-03T01:58:28.955Z,99.90
2018-08-03T02:00:57.596Z,99.90
2018-08-03T02:03:26.298Z,99.90
2018-08-03T02:05:54.887Z,99.90
2018-08-03T02:08:23.457Z,99.90
2018-08-03T02:10:52.083Z,99.90
2018-08-03T02:13:20.739Z,99.90
2018-08-03T02:15:49.312Z,99.90
2018-08-03T02:18:18.473Z,99.90
2018-08-03T02:20:47.048Z,99.90
2018-08-03T02:23:15.683Z,99.90
2018-08-03T02:25:44.280Z,99.90
2018-08-03T02:28:12.877Z,99.90
2018-08-03T02:30:41.499Z,99.90
2018-08-03T02:33:10.123Z,99.90
2018-08-03T02:35:38.699Z,99.90
2018-08-03T02:38:07.335Z,99.90
2018-08-03T02:40:35.998Z,99.90
2018-08-03T02:43:04.722Z,99.90
2018-08-03T02:45:33.416Z,99.90
2018-08-03T02:48:01.990Z,99.90
2018-08-03T02:50:30.565Z,99.90
2018-08-03T02:52:59.174Z,99.90
2018-08-03T02:55:27.792Z,99.90
2018-08-03T02:57:56.408Z,99.90
2018-08-03T03:00:25.473Z,99.90
2018-08-03T03:02:54.026Z,99.90
2018-08-03T03:05:22.679Z,99.90
2018-08-03T03:07:51.265Z,99.90
2018-08-03T03:10:19.895Z,99.90
2018-08-03T03:12:48.481Z,99.90
2018-08-03T03:15:17.122Z,99.90
2018-08-03T03:17:45.727Z,99.90
2018-08-03T03:20:14.294Z,99.90
2018-08-03T03:22:42.903Z,99.90
2018-08-03T03:25:11.597Z,99.90
2018-08-03T03:27:40.185Z,99.90
2018-08-03T03:30:09.347Z,99.90
2018-08-03T03:32:38.057Z,99.90
2018-08-03T03:35:06.701Z,99.90
2018-08-03T03:40:03.649Z,99.90
2018-08-03T03:42:32.308Z,99.90
2018-08-03T03:45:00.970Z,99.90
2018-08-03T03:47:29.594Z,99.90
2018-08-03T03:49:58.150Z,99.90
2018-08-03T03:52:26.698Z,99.90
2018-08-03T03:54:55.402Z,99.90
2018-08-03T03:57:24.039Z,99.90
2018-08-03T03:59:52.625Z,99.90
2018-08-03T04:02:21.289Z,99.90
2018-08-03T04:04:49.939Z,99.90
2018-08-03T04:07:18.457Z,99.90
2018-08-03T04:09:47.104Z,99.90
2018-08-03T04:12:15.695Z,99.90
2018-08-03T04:14:44.281Z,99.90
2018-08-03T04:17:12.892Z,99.90
2018-08-03T04:19:41.428Z,99.90
2018-08-03T04:22:10.116Z,99.90
2018-08-03T04:24:38.833Z,99.90
2018-08-03T04:27:07.437Z,99.90
2018-08-03T04:29:36.073Z,99.90
2018-08-03T04:32:04.653Z,99.90
2018-08-03T04:34:33.283Z,99.90
2018-08-03T04:37:01.882Z,99.90
2018-08-03T04:39:30.505Z,99.90
2018-08-03T04:41:59.063Z,99.90
2018-08-03T04:44:27.735Z,99.90
2018-08-03T04:46:56.335Z,99.90
2018-08-03T04:49:25.027Z,99.90
2018-08-03T04:51:53.644Z,99.90
2018-08-03T04:54:22.309Z,99.90
2018-08-03T04:56:50.887Z,99.90
2018-08-03T05:01:47.708Z,99.90
2018-08-03T05:04:16.353Z,99.90
2018-08-03T05:06:45.042Z,99.90
2018-08-03T05:09:13.669Z,99.90
2018-08-03T05:11:42.269Z,99.90
2018-08-03T05:14:12.973Z,99.90
2018-08-03T05:16:41.633Z,99.90
2018-08-03T05:19:10.282Z,99.90
2018-08-03T05:21:38.837Z,99.90
2018-08-03T05:24:07.436Z,99.90
2018-08-03T05:26:36.026Z,99.90
2018-08-03T05:29:04.704Z,99.90
2018-08-03T05:31:33.313Z,99.90
2018-08-03T05:34:01.921Z,99.90
2018-08-03T05:36:30.482Z,99.90
2018-08-03T05:38:59.093Z,99.90
2018-08-03T05:41:27.618Z,99.90
2018-08-03T05:43:56.161Z,99.90
2018-08-03T05:46:24.778Z,99.90
2018-08-03T05:48:53.400Z,99.90
2018-08-03T05:51:22.023Z,99.90
2018-08-03T05:53:50.644Z,99.90
2018-08-03T05:56:19.233Z,99.90
2018-08-03T05:58:47.818Z,99.90
2018-08-03T06:01:16.510Z,99.90
2018-08-03T06:03:45.128Z,99.90
2018-08-03T06:06:13.889Z,99.90
2018-08-03T06:08:42.627Z,99.90
2018-08-03T06:11:11.249Z,99.90
2018-08-03T06:13:39.853Z,99.90
2018-08-03T06:16:08.520Z,99.90
2018-08-03T06:18:37.111Z,99.90
2018-08-03T06:21:05.731Z,99.90
2018-08-03T06:23:34.261Z,99.90
2018-08-03T06:26:02.910Z,99.90
2018-08-03T06:28:31.620Z,99.90
2018-08-03T06:31:00.285Z,99.90
2018-08-03T06:33:28.864Z,99.90
2018-08-03T06:35:57.707Z,99.90
2018-08-03T06:38:26.416Z,99.90
2018-08-03T06:40:55.003Z,99.90
2018-08-03T06:43:23.599Z,99.90
2018-08-03T06:45:52.194Z,99.90
2018-08-03T06:48:20.868Z,99.90
2018-08-03T06:50:49.436Z,99.90
2018-08-03T06:53:18.092Z,99.90
2018-08-03T06:55:46.692Z,99.90
2018-08-03T07:00:43.563Z,99.90
2018-08-03T07:03:12.235Z,99.90
2018-08-03T07:05:40.907Z,99.90
2018-08-03T07:08:09.451Z,99.90
2018-08-03T07:10:38.086Z,99.90
2018-08-03T07:13:06.690Z,99.90
2018-08-03T07:15:35.401Z,99.90
2018-08-03T07:18:04.029Z,99.90
2018-08-03T07:20:32.744Z,99.90
2018-08-03T07:23:01.231Z,99.90
2018-08-03T07:25:29.889Z,99.90
2018-08-03T07:27:58.440Z,99.60
2018-08-03T07:30:27.038Z,99.10
2018-08-03T07:32:55.685Z,99.10
2018-08-03T07:35:24.267Z,99.00
2018-08-03T07:37:52.993Z,98.50
2018-08-03T07:40:21.554Z,98.10
2018-08-03T07:42:50.224Z,98.30
2018-08-03T07:47:47.137Z,97.30
2018-08-03T07:50:15.757Z,97.40
2018-08-03T07:52:44.394Z,97.40
2018-08-03T07:55:12.967Z,96.70
2018-08-03T07:57:41.855Z,96.20
2018-08-03T08:00:10.410Z,95.60
2018-08-03T08:02:39.020Z,95.60
2018-08-03T08:05:07.705Z,95.70
2018-08-03T08:07:36.335Z,95.60
2018-08-03T08:10:05.850Z,95.40
2018-08-03T08:12:34.480Z,95.10
2018-08-03T08:15:03.051Z,94.70
2018-08-03T08:17:31.709Z,94.20
2018-08-03T08:20:00.249Z,93.50
2018-08-03T08:22:28.886Z,93.40
2018-08-03T08:24:58.086Z,92.60
2018-08-03T08:27:26.664Z,92.40
2018-08-03T08:29:55.228Z,92.00
2018-08-03T08:32:23.908Z,91.60
2018-08-03T08:39:48.988Z,90.60
2018-08-03T08:42:17.595Z,90.70
2018-08-03T08:44:46.153Z,90.40
2018-08-03T08:47:14.735Z,90.10
2018-08-03T08:49:43.376Z,88.70
2018-08-03T08:54:40.252Z,86.90
2018-08-03T08:57:08.842Z,85.40
2018-08-03T08:59:37.572Z,85.70
2018-08-03T09:02:06.503Z,85.10
2018-08-03T09:07:03.433Z,84.00
2018-08-03T09:09:31.985Z,82.80
2018-08-03T09:12:00.629Z,83.00
2018-08-03T09:14:29.247Z,81.50
2018-08-03T09:16:57.859Z,82.00
2018-08-03T09:19:26.562Z,80.90
2018-08-03T09:21:55.131Z,80.10
2018-08-03T09:24:23.906Z,79.10
2018-08-03T09:26:52.479Z,77.30
2018-08-03T09:29:21.289Z,75.60
2018-08-03T09:31:49.918Z,72.00
2018-08-03T09:34:18.544Z,72.20
2018-08-03T09:36:47.130Z,70.30
2018-08-03T09:39:15.816Z,67.60
2018-08-03T09:41:44.544Z,67.90
2018-08-03T09:44:13.285Z,68.50
2018-08-03T09:46:41.895Z,67.40
2018-08-03T09:49:10.603Z,67.10
2018-08-03T09:54:07.477Z,66.60
2018-08-03T09:56:36.259Z,66.50
2018-08-03T09:59:05.223Z,66.90
2018-08-03T10:01:33.790Z,65.00
2018-08-03T10:04:02.401Z,65.40
2018-08-03T10:06:30.927Z,64.10
2018-08-03T10:08:59.569Z,64.40
2018-08-03T10:11:28.191Z,63.80
2018-08-03T10:13:56.969Z,62.90
2018-08-03T10:16:25.686Z,62.50
2018-08-03T10:18:54.686Z,63.00
2018-08-03T10:21:23.281Z,63.30
2018-08-03T10:23:51.848Z,62.70
2018-08-03T10:26:20.491Z,61.90
2018-08-03T10:28:49.076Z,60.50
2018-08-03T10:31:17.693Z,60.10
2018-08-03T10:33:46.362Z,59.20
2018-08-03T10:36:15.046Z,58.40
2018-08-03T10:38:43.601Z,57.90
2018-08-03T10:41:13.259Z,58.70
2018-08-03T10:43:41.904Z,58.90
2018-08-03T10:46:10.856Z,58.60
2018-08-03T10:48:39.528Z,56.50
2018-08-03T10:51:08.328Z,57.10
2018-08-03T10:53:36.945Z,57.10
2018-08-03T10:56:05.663Z,56.70
2018-08-03T10:58:34.263Z,54.20
2018-08-03T11:01:02.805Z,52.30
2018-08-03T11:03:31.534Z,53.30
2018-08-03T11:06:00.090Z,53.30
2018-08-03T11:08:28.637Z,52.00
2018-08-03T11:10:57.276Z,51.80
2018-08-03T11:13:25.910Z,50.90
2018-08-03T11:15:54.465Z,50.10
2018-08-03T11:18:23.089Z,49.90
2018-08-03T11:20:51.662Z,49.60
2018-08-03T11:23:20.264Z,49.20
2018-08-03T11:25:48.848Z,48.70
2018-08-03T11:28:17.401Z,48.20
2018-08-03T11:30:46.021Z,48.50
2018-08-03T11:33:14.628Z,47.80
2018-08-03T11:35:43.207Z,47.30
2018-08-03T11:38:11.827Z,46.50
2018-08-03T11:40:40.462Z,46.20
2018-08-03T11:43:09.144Z,45.80
2018-08-03T11:45:37.732Z,45.40
2018-08-03T11:48:06.371Z,45.20
2018-08-03T11:50:35.006Z,44.80
2018-08-03T11:53:03.660Z,44.20
2018-08-03T11:55:32.301Z,44.70
2018-08-03T11:58:00.911Z,44.10
2018-08-03T12:00:29.680Z,43.90
2018-08-03T12:02:58.466Z,42.60
2018-08-03T12:05:27.064Z,42.10
2018-08-03T12:07:55.613Z,42.00
2018-08-03T12:10:24.339Z,41.90
2018-08-03T12:12:52.870Z,42.30
2018-08-03T12:15:21.549Z,42.00
2018-08-03T12:17:50.138Z,41.10
2018-08-03T12:20:18.763Z,41.10
2018-08-03T12:22:47.351Z,41.30
2018-08-03T12:25:16.027Z,40.70
2018-08-03T12:27:44.540Z,40.40
2018-08-03T12:30:13.144Z,40.70
2018-08-03T12:32:41.713Z,39.20
2018-08-03T12:35:10.385Z,39.50
2018-08-03T12:37:39.304Z,40.10
2018-08-03T12:40:07.922Z,39.20
2018-08-03T12:42:36.602Z,39.60
2018-08-03T12:45:05.385Z,38.60
2018-08-03T12:47:34.997Z,38.40
2018-08-03T12:50:03.713Z,39.50
2018-08-03T12:52:32.373Z,39.70
2018-08-03T12:55:00.997Z,39.60
2018-08-03T12:57:29.658Z,38.80
2018-08-03T12:59:58.309Z,38.60
2018-08-03T13:02:26.920Z,37.60
2018-08-03T13:04:55.669Z,36.90
2018-08-03T13:07:24.395Z,36.90
2018-08-03T13:09:53.040Z,37.00
2018-08-03T13:12:21.643Z,36.20
2018-08-03T13:17:19.639Z,36.80
2018-08-03T13:19:48.300Z,35.90
2018-08-03T13:24:51.370Z,37.20
2018-08-03T13:27:21.636Z,36.50
2018-08-03T13:29:50.279Z,37.00
2018-08-03T13:32:18.892Z,36.10
2018-08-03T13:34:47.541Z,36.90
2018-08-03T13:37:16.306Z,35.90
2018-08-03T13:39:44.960Z,36.20
2018-08-03T13:44:41.801Z,35.00
2018-08-03T13:47:10.491Z,36.00
2018-08-03T13:49:39.096Z,36.30
2018-08-03T13:52:07.757Z,37.30
2018-08-03T13:54:36.340Z,38.00
2018-08-03T13:57:05.335Z,38.10
2018-08-03T13:59:33.905Z,36.70
2018-08-03T14:02:13.688Z,37.70
2018-08-03T14:04:42.281Z,38.20
2018-08-03T14:07:10.858Z,37.80
2018-08-03T14:09:39.449Z,36.80
2018-08-03T14:12:08.168Z,36.60
2018-08-03T14:14:36.894Z,35.50
2018-08-03T14:17:05.656Z,36.40
2018-08-03T14:19:36.044Z,35.60
2018-08-03T14:22:05.210Z,35.30
2018-08-03T14:24:34.142Z,34.90
2018-08-03T14:27:03.393Z,35.60
2018-08-03T14:29:32.149Z,35.30
2018-08-03T14:32:00.820Z,35.80
2018-08-03T14:34:29.505Z,35.30
2018-08-03T14:36:58.267Z,35.90
2018-08-03T14:39:26.941Z,35.80
2018-08-03T14:41:55.527Z,34.60
2018-08-03T14:44:24.149Z,34.90
2018-08-03T14:46:52.817Z,34.90
2018-08-03T14:49:21.504Z,34.50
2018-08-03T14:51:50.196Z,34.40
2018-08-03T14:54:19.872Z,34.40
2018-08-03T14:56:48.544Z,33.80
2018-08-03T14:59:17.176Z,33.80
2018-08-03T15:01:45.816Z,34.10
2018-08-03T15:04:14.450Z,34.70
2018-08-03T15:06:42.998Z,34.40
2018-08-03T15:11:40.921Z,35.20
2018-08-03T15:14:09.648Z,35.40
2018-08-03T15:16:38.399Z,35.90
2018-08-03T15:19:07.311Z,36.60
2018-08-03T15:21:35.924Z,37.20
2018-08-03T15:24:04.577Z,37.00
2018-08-03T15:26:33.259Z,37.40
2018-08-03T15:29:01.831Z,37.30
2018-08-03T15:31:30.378Z,37.60
2018-08-03T15:33:59.038Z,36.20
2018-08-03T15:36:27.652Z,36.30
2018-08-03T15:38:56.245Z,36.70
2018-08-03T15:41:25.798Z,36.50
2018-08-03T15:43:54.968Z,36.80
2018-08-03T15:46:23.839Z,36.10
2018-08-03T15:48:52.403Z,35.90
2018-08-03T15:51:20.995Z,35.90
2018-08-03T15:53:49.610Z,35.60
2018-08-03T15:56:18.237Z,35.20
2018-08-03T15:58:46.874Z,35.60
2018-08-03T16:01:15.444Z,36.40
2018-08-03T16:03:44.069Z,35.70
2018-08-03T16:06:12.747Z,35.90
2018-08-03T16:08:41.296Z,35.40
2018-08-03T16:11:09.862Z,34.90
2018-08-03T16:16:06.772Z,33.00
2018-08-03T16:18:35.459Z,33.00
2018-08-03T16:21:04.117Z,32.50
2018-08-03T16:23:32.881Z,32.00
2018-08-03T16:26:01.476Z,31.30
2018-08-03T16:28:30.052Z,31.70
2018-08-03T16:30:58.685Z,31.00
2018-08-03T16:33:27.306Z,31.40
2018-08-03T16:35:56.256Z,30.90
2018-08-03T16:38:24.995Z,30.10
2018-08-03T16:40:55.101Z,30.00
2018-08-03T16:43:23.795Z,30.10
2018-08-03T16:45:55.912Z,30.10
2018-08-03T16:48:24.701Z,30.80
2018-08-03T16:50:53.388Z,30.90
2018-08-03T16:53:22.067Z,30.60
2018-08-03T16:55:51.831Z,30.10
2018-08-03T16:58:20.508Z,29.90
2018-08-03T17:00:49.124Z,29.40
2018-08-03T17:03:17.704Z,30.00
2018-08-03T17:05:46.286Z,30.00
2018-08-03T17:08:15.085Z,30.50
2018-08-03T17:10:43.745Z,29.90
2018-08-03T17:13:13.164Z,30.30
2018-08-03T17:15:41.729Z,31.00
2018-08-03T17:18:10.427Z,31.00
2018-08-03T17:20:39.047Z,31.30
2018-08-03T17:23:07.706Z,31.40
2018-08-03T17:25:36.348Z,31.60
2018-08-03T17:28:05.109Z,31.70
2018-08-03T17:30:33.817Z,31.30
2018-08-03T17:33:03.664Z,31.80
2018-08-03T17:38:00.608Z,33.30
2018-08-03T17:40:29.264Z,33.00
2018-08-03T17:42:57.905Z,33.30
2018-08-03T17:45:26.544Z,34.60
2018-08-03T17:47:55.171Z,35.70
2018-08-03T17:50:23.744Z,35.00
2018-08-03T17:52:52.384Z,35.00
2018-08-03T17:55:20.990Z,37.40
2018-08-03T17:57:49.533Z,38.80
2018-08-03T18:00:18.144Z,39.80
2018-08-03T18:02:46.839Z,41.70
2018-08-03T18:05:16.401Z,43.00
2018-08-03T18:07:44.940Z,44.50
2018-08-03T18:10:13.673Z,46.20
2018-08-03T18:12:42.429Z,47.70
2018-08-03T18:15:11.054Z,48.70
2018-08-03T18:17:39.757Z,49.90
2018-08-03T18:20:08.758Z,51.70
2018-08-03T18:22:38.497Z,52.70
2018-08-03T18:25:07.133Z,53.90
2018-08-03T18:27:35.738Z,55.40
2018-08-03T18:30:05.258Z,56.30
2018-08-03T18:32:33.843Z,56.00
2018-08-03T18:35:02.516Z,56.20
2018-08-03T18:37:31.207Z,57.40
2018-08-03T18:40:00.045Z,58.00
2018-08-03T18:42:29.721Z,60.10
2018-08-03T18:44:58.475Z,60.80
2018-08-03T18:47:27.568Z,61.60
2018-08-03T18:49:56.205Z,62.60
2018-08-03T18:52:24.761Z,62.60
2018-08-03T18:54:53.501Z,62.90
2018-08-03T18:57:22.100Z,63.80
2018-08-03T18:59:50.785Z,65.10
2018-08-03T19:02:19.661Z,66.90
2018-08-03T19:04:48.308Z,67.60
2018-08-03T19:07:16.905Z,68.50
2018-08-03T19:12:13.837Z,70.90
2018-08-03T19:14:42.502Z,71.70
2018-08-03T19:17:11.156Z,72.30
2018-08-03T19:19:39.799Z,73.00
2018-08-03T19:22:08.504Z,72.90
2018-08-03T19:24:37.077Z,73.30
2018-08-03T19:27:05.695Z,73.70
2018-08-03T19:29:35.322Z,75.00
2018-08-03T19:32:03.968Z,74.30
2018-08-03T19:34:32.503Z,74.00
2018-08-03T19:37:01.167Z,74.30
2018-08-03T19:39:29.877Z,75.10
2018-08-03T19:41:58.542Z,75.50
2018-08-03T19:44:27.227Z,76.60
2018-08-03T19:46:55.819Z,77.40
2018-08-03T19:49:24.449Z,77.80
2018-08-03T19:51:53.052Z,78.40
2018-08-03T19:56:50.020Z,77.20
2018-08-03T19:59:18.660Z,78.30
2018-08-03T20:01:47.447Z,78.90
2018-08-03T20:04:16.087Z,78.50
2018-08-03T20:06:44.699Z,79.20
2018-08-03T20:09:13.603Z,80.30
2018-08-03T20:11:42.195Z,81.20
2018-08-03T20:14:10.823Z,81.60
2018-08-03T20:16:39.435Z,81.30
2018-08-03T20:19:08.106Z,81.00
2018-08-03T20:21:37.778Z,82.50
2018-08-03T20:24:06.446Z,84.30
2018-08-03T20:26:35.000Z,83.70
2018-08-03T20:29:03.665Z,83.60
2018-08-03T20:31:32.324Z,84.70
2018-08-03T20:34:00.930Z,84.10
2018-08-03T20:36:29.571Z,84.70
2018-08-03T20:38:58.148Z,86.30
2018-08-03T20:41:26.837Z,87.80
2018-08-03T20:43:55.462Z,89.00
2018-08-03T20:46:24.246Z,89.00
2018-08-03T20:48:52.906Z,89.70
2018-08-03T20:51:21.550Z,90.50
2018-08-03T20:53:50.165Z,90.70
2018-08-03T20:56:18.951Z,90.80
2018-08-03T20:58:47.504Z,91.10
2018-08-03T21:01:16.161Z,91.30
2018-08-03T21:03:44.717Z,91.90
2018-08-03T21:06:13.327Z,91.90
2018-08-03T21:08:41.962Z,91.90
2018-08-03T21:11:10.599Z,92.40
2018-08-03T21:13:39.190Z,92.50
2018-08-03T21:16:07.791Z,92.00
2018-08-03T21:18:36.350Z,92.20
2018-08-03T21:21:04.985Z,92.30
2018-08-03T21:23:33.569Z,92.30
2018-08-03T21:26:02.249Z,93.00
2018-08-03T21:28:30.825Z,93.20
2018-08-03T21:30:59.464Z,93.10
2018-08-03T21:33:28.084Z,93.40
2018-08-03T21:35:56.684Z,93.40
2018-08-03T21:38:25.313Z,93.80
2018-08-03T21:40:54.063Z,94.30
2018-08-03T21:43:22.622Z,94.70
2018-08-03T21:45:51.257Z,94.90
2018-08-03T21:48:19.752Z,95.20
2018-08-03T21:50:48.432Z,95.30
2018-08-03T21:53:17.010Z,95.30
2018-08-03T21:55:45.653Z,95.50
2018-08-03T21:58:14.263Z,95.50
2018-08-03T22:00:42.890Z,95.10
2018-08-03T22:03:11.491Z,95.70
2018-08-03T22:05:40.205Z,96.20
2018-08-03T22:08:08.816Z,96.20
2018-08-03T22:10:37.452Z,96.40
2018-08-03T22:13:06.027Z,96.80
2018-08-03T22:15:34.694Z,97.00
2018-08-03T22:18:03.261Z,97.00
2018-08-03T22:20:31.903Z,96.60
2018-08-03T22:23:00.440Z,96.40
2018-08-03T22:25:29.037Z,96.60
2018-08-03T22:27:57.625Z,97.10
2018-08-03T22:30:26.234Z,97.80
2018-08-03T22:32:54.857Z,97.80
2018-08-03T22:35:23.402Z,97.80
2018-08-03T22:37:55.032Z,97.80
2018-08-03T22:40:23.612Z,98.10
2018-08-03T22:42:52.230Z,98.40
2018-08-03T22:45:20.848Z,98.70
2018-08-03T22:47:49.464Z,98.70
2018-08-03T22:50:18.058Z,98.50
2018-08-03T22:52:46.672Z,98.50
2018-08-03T22:55:15.232Z,98.70
2018-08-03T22:57:43.774Z,99.20
2018-08-03T23:00:12.383Z,99.20
2018-08-03T23:02:41.963Z,99.70
2018-08-03T23:05:10.570Z,99.40
2018-08-03T23:07:39.459Z,99.60
2018-08-03T23:10:08.400Z,99.70
2018-08-03T23:12:37.010Z,99.70
2018-08-03T23:15:06.073Z,99.90
2018-08-03T23:17:34.663Z,99.90
2018-08-03T23:20:03.237Z,99.90
2018-08-03T23:22:31.863Z,99.90
2018-08-03T23:25:00.881Z,99.90
2018-08-03T23:27:29.541Z,99.90
2018-08-03T23:29:58.160Z,99.90
2018-08-03T23:32:26.921Z,99.90
2018-08-03T23:37:23.761Z,99.90
2018-08-03T23:39:52.464Z,99.90
2018-08-03T23:42:21.079Z,99.90
2018-08-03T23:44:49.591Z,99.90
2018-08-03T23:47:18.212Z,99.90
2018-08-03T23:49:46.829Z,99.90
2018-08-03T23:52:15.428Z,99.90
2018-08-03T23:54:44.098Z,99.90
2018-08-03T23:57:12.725Z,99.90
2018-08-03T23:59:41.586Z,99.90
